Time;durP1;ratioP1;P1;durP2;ratioP2;P2;SDS_P1;SDS_P2;PMS_P1;PMS_P2;Temp;Humidity;BMP_temperature;BMP_pressure;BME280_temperature;BME280_humidity;BME280_pressure;Samples;Min_cycle;Max_cycle;Signal;HPM_P1;HPM_P2
2021/06/27 00:01:44;;;;;;;;;;;17.50;99.90;;;;;;6182146;23;19997;-72
2021/06/27 00:04:13;;;;;;;;;;;17.40;99.90;;;;;;6182405;23;20023;-72
2021/06/27 00:06:39;;;;;;;;;;;17.40;99.90;;;;;;6155880;23;20396;-73
2021/06/27 00:09:04;;;;;;;;;;;17.40;99.90;;;;;;6182188;23;19989;-72
2021/06/27 00:11:30;;;;;;;;;;;17.30;99.90;;;;;;6182182;23;19980;-73
2021/06/27 00:13:56;;;;;;;;;;;17.30;99.90;;;;;;6155809;23;20018;-72
2021/06/27 00:16:21;;;;;;;;;;;17.30;99.90;;;;;;6181856;23;19974;-72
2021/06/27 00:18:47;;;;;;;;;;;17.20;99.90;;;;;;6181988;23;19997;-72
2021/06/27 00:21:13;;;;;;;;;;;17.10;99.90;;;;;;6182042;23;19996;-73
2021/06/27 00:23:41;;;;;;;;;;;17.10;99.90;;;;;;6182019;23;20393;-72
2021/06/27 00:26:08;;;;;;;;;;;17.10;99.90;;;;;;6182068;23;20397;-73
2021/06/27 00:28:33;;;;;;;;;;;17.00;99.90;;;;;;6182245;23;20001;-72
2021/06/27 00:31:00;;;;;;;;;;;17.00;99.90;;;;;;6181982;23;20415;-72
2021/06/27 00:33:26;;;;;;;;;;;17.00;99.90;;;;;;6155703;23;19984;-73
2021/06/27 00:35:51;;;;;;;;;;;16.90;99.90;;;;;;6181965;23;19973;-72
2021/06/27 00:38:17;;;;;;;;;;;16.90;99.90;;;;;;6181826;23;20020;-72
2021/06/27 00:40:42;;;;;;;;;;;16.90;99.90;;;;;;6181935;23;19974;-73
2021/06/27 00:43:08;;;;;;;;;;;16.80;99.90;;;;;;6181811;23;20000;-72
2021/06/27 00:45:33;;;;;;;;;;;16.80;99.90;;;;;;6181870;23;19973;-73
2021/06/27 00:47:59;;;;;;;;;;;16.80;99.90;;;;;;6155126;23;20383;-73
2021/06/27 00:50:29;;;;;;;;;;;16.70;99.90;;;;;;6156174;23;19984;-73
2021/06/27 00:52:55;;;;;;;;;;;16.70;99.90;;;;;;6182157;23;19980;-73
2021/06/27 00:55:21;;;;;;;;;;;16.70;99.90;;;;;;6155418;23;20320;-73
2021/06/27 00:57:48;;;;;;;;;;;16.60;99.90;;;;;;6181628;23;20075;-73
2021/06/27 01:00:17;;;;;;;;;;;16.60;99.90;;;;;;6181727;23;19973;-72
2021/06/27 01:02:44;;;;;;;;;;;16.60;99.90;;;;;;6156005;23;20000;-73
2021/06/27 01:05:11;;;;;;;;;;;16.50;99.90;;;;;;6155391;23;19977;-73
2021/06/27 01:07:36;;;;;;;;;;;16.50;99.90;;;;;;6181537;23;19989;-73
2021/06/27 01:10:02;;;;;;;;;;;16.50;99.90;;;;;;6181689;23;19980;-73
2021/06/27 01:12:28;;;;;;;;;;;16.40;99.90;;;;;;6155232;23;20410;-73
2021/06/27 01:14:54;;;;;;;;;;;16.40;99.90;;;;;;6181584;23;19973;-72
2021/06/27 01:17:20;;;;;;;;;;;16.40;99.90;;;;;;6181750;23;19973;-73
2021/06/27 01:19:46;;;;;;;;;;;16.30;99.90;;;;;;6181579;23;20416;-72
2021/06/27 01:22:11;;;;;;;;;;;16.30;99.90;;;;;;6155021;23;20004;-73
2021/06/27 01:24:36;;;;;;;;;;;16.30;99.90;;;;;;6181848;23;19973;-73
2021/06/27 01:27:02;;;;;;;;;;;16.30;99.90;;;;;;6154971;23;20341;-72
2021/06/27 01:29:27;;;;;;;;;;;16.20;99.90;;;;;;6155084;23;19993;-72
2021/06/27 01:31:53;;;;;;;;;;;16.20;99.90;;;;;;6182146;23;20012;-73
2021/06/27 01:34:19;;;;;;;;;;;16.20;99.90;;;;;;6155068;23;20036;-72
2021/06/27 01:36:44;;;;;;;;;;;16.10;99.90;;;;;;6181471;23;20385;-72
2021/06/27 01:39:10;;;;;;;;;;;16.10;99.90;;;;;;6181724;23;20371;-72
2021/06/27 01:41:35;;;;;;;;;;;16.10;99.90;;;;;;6181297;23;20412;-72
2021/06/27 01:44:01;;;;;;;;;;;16.10;99.90;;;;;;6181751;23;20385;-72
2021/06/27 01:46:27;;;;;;;;;;;16.00;99.90;;;;;;6181345;23;19973;-73
2021/06/27 01:48:52;;;;;;;;;;;16.00;99.90;;;;;;6154767;23;20027;-72
2021/06/27 01:51:17;;;;;;;;;;;16.00;99.90;;;;;;6154910;23;19977;-72
2021/06/27 01:53:43;;;;;;;;;;;16.00;99.90;;;;;;6181631;23;19973;-73
2021/06/27 01:56:09;;;;;;;;;;;15.90;99.90;;;;;;6181372;23;20005;-73
2021/06/27 01:58:42;;;;;;;;;;;15.90;99.90;;;;;;6154783;23;20000;-73
2021/06/27 02:01:14;;;;;;;;;;;15.90;99.90;;;;;;6181253;23;19973;-73
2021/06/27 02:03:40;;;;;;;;;;;15.90;99.90;;;;;;6154905;23;20406;-73
2021/06/27 02:06:06;;;;;;;;;;;15.80;99.90;;;;;;6182074;23;19980;-73
2021/06/27 02:08:35;;;;;;;;;;;15.80;99.90;;;;;;6181401;23;19989;-72
2021/06/27 02:11:02;;;;;;;;;;;15.80;99.90;;;;;;6181370;23;20004;-73
2021/06/27 02:13:27;;;;;;;;;;;15.80;99.90;;;;;;6181313;23;20052;-72
2021/06/27 02:15:53;;;;;;;;;;;15.80;99.90;;;;;;6155053;23;19978;-72
2021/06/27 02:18:27;;;;;;;;;;;15.70;99.90;;;;;;6181370;23;20056;-72
2021/06/27 02:20:53;;;;;;;;;;;15.70;99.90;;;;;;6181418;23;19974;-72
2021/06/27 02:23:18;;;;;;;;;;;15.70;99.90;;;;;;6181574;23;20407;-73
2021/06/27 02:25:45;;;;;;;;;;;15.60;99.90;;;;;;6154916;23;19977;-72
2021/06/27 02:28:11;;;;;;;;;;;15.60;99.90;;;;;;6154920;23;19993;-72
2021/06/27 02:30:36;;;;;;;;;;;15.60;99.90;;;;;;6181265;23;19979;-72
2021/06/27 02:33:03;;;;;;;;;;;15.60;99.90;;;;;;6181253;23;20012;-72
2021/06/27 02:35:28;;;;;;;;;;;15.50;99.90;;;;;;6155609;23;19977;-72
2021/06/27 02:37:54;;;;;;;;;;;15.50;99.90;;;;;;6181349;23;20305;-72
2021/06/27 02:40:20;;;;;;;;;;;15.50;99.90;;;;;;6156727;23;19977;-72
2021/06/27 02:42:45;;;;;;;;;;;15.50;99.90;;;;;;6183067;23;19993;-73
2021/06/27 02:45:11;;;;;;;;;;;15.50;99.90;;;;;;6183123;23;20024;-72
2021/06/27 02:47:37;;;;;;;;;;;15.50;99.90;;;;;;6156577;23;20060;-72
2021/06/27 02:50:05;;;;;;;;;;;15.50;99.90;;;;;;6183380;23;20412;-72
2021/06/27 02:52:30;;;;;;;;;;;15.50;99.90;;;;;;6183079;23;20060;-72
2021/06/27 02:54:56;;;;;;;;;;;15.50;99.90;;;;;;6183013;23;19980;-72
2021/06/27 02:57:21;;;;;;;;;;;15.50;99.90;;;;;;6182874;23;20012;-73
2021/06/27 02:59:47;;;;;;;;;;;15.50;99.90;;;;;;6156724;23;19988;-73
2021/06/27 03:02:12;;;;;;;;;;;15.50;99.90;;;;;;6183527;23;20358;-72
2021/06/27 03:04:37;;;;;;;;;;;15.50;99.90;;;;;;6182834;23;20005;-72
2021/06/27 03:07:03;;;;;;;;;;;15.40;99.90;;;;;;6182802;23;19996;-72
2021/06/27 03:09:29;;;;;;;;;;;15.40;99.90;;;;;;6182732;23;19990;-72
2021/06/27 03:11:54;;;;;;;;;;;15.40;99.90;;;;;;6156406;23;19977;-72
2021/06/27 03:14:20;;;;;;;;;;;15.40;99.90;;;;;;6182745;23;20140;-72
2021/06/27 03:16:45;;;;;;;;;;;15.40;99.90;;;;;;6182738;23;20304;-72
2021/06/27 03:19:14;;;;;;;;;;;15.40;99.90;;;;;;6182550;23;19989;-71
2021/06/27 03:21:39;;;;;;;;;;;15.40;99.90;;;;;;6182652;23;19993;-72
2021/06/27 03:24:05;;;;;;;;;;;15.40;99.90;;;;;;6182598;23;19973;-72
2021/06/27 03:26:30;;;;;;;;;;;15.40;99.90;;;;;;6182608;23;19977;-72
2021/06/27 03:28:56;;;;;;;;;;;15.30;99.90;;;;;;6182496;23;20032;-72
2021/06/27 03:31:21;;;;;;;;;;;15.40;99.90;;;;;;6182550;23;19974;-72
2021/06/27 03:33:47;;;;;;;;;;;15.30;99.90;;;;;;6182776;23;19973;-72
2021/06/27 03:36:12;;;;;;;;;;;15.30;99.90;;;;;;6182627;23;19977;-72
2021/06/27 03:38:46;;;;;;;;;;;15.40;99.90;;;;;;6182406;23;19998;-72
2021/06/27 03:41:12;;;;;;;;;;;15.30;99.90;;;;;;6182618;23;19978;-72
2021/06/27 03:43:37;;;;;;;;;;;15.30;99.90;;;;;;6156135;23;19977;-72
2021/06/27 03:46:03;;;;;;;;;;;15.30;99.90;;;;;;6182505;23;20304;-71
2021/06/27 03:48:28;;;;;;;;;;;15.30;99.90;;;;;;6183664;23;20021;-75
2021/06/27 03:50:54;;;;;;;;;;;15.40;99.90;;;;;;6182445;23;19980;-76
2021/06/27 03:53:19;;;;;;;;;;;15.40;99.90;;;;;;6182893;23;20003;-75
2021/06/27 03:55:45;;;;;;;;;;;15.40;99.90;;;;;;6156038;23;19977;-76
2021/06/27 03:58:10;;;;;;;;;;;15.40;99.90;;;;;;6182407;23;19989;-76
2021/06/27 04:00:36;;;;;;;;;;;15.50;99.90;;;;;;6182341;23;19973;-75
2021/06/27 04:03:01;;;;;;;;;;;15.50;99.90;;;;;;6183025;23;20004;-75
2021/06/27 04:05:27;;;;;;;;;;;15.50;99.90;;;;;;6156063;23;20024;-75
2021/06/27 04:07:52;;;;;;;;;;;15.60;99.90;;;;;;6182559;23;20421;-76
2021/06/27 04:10:18;;;;;;;;;;;15.80;99.90;;;;;;6156008;23;20364;-76
2021/06/27 04:12:43;;;;;;;;;;;15.90;99.90;;;;;;6155836;23;20464;-75
2021/06/27 04:15:09;;;;;;;;;;;16.10;99.90;;;;;;6182987;23;19976;-75
2021/06/27 04:17:35;;;;;;;;;;;16.20;99.90;;;;;;6155969;23;19977;-75
2021/06/27 04:20:01;;;;;;;;;;;16.30;99.90;;;;;;6155776;23;19993;-76
2021/06/27 04:22:26;;;;;;;;;;;16.50;99.90;;;;;;6182154;23;20002;-76
2021/06/27 04:24:52;;;;;;;;;;;16.60;99.90;;;;;;6182922;23;20028;-77
2021/06/27 04:27:17;;;;;;;;;;;16.60;99.90;;;;;;6157193;23;20015;-76
2021/06/27 04:29:43;;;;;;;;;;;16.60;99.90;;;;;;6156723;23;19993;-77
2021/06/27 04:32:09;;;;;;;;;;;16.60;99.90;;;;;;6183079;23;19978;-77
2021/06/27 04:34:34;;;;;;;;;;;16.60;99.90;;;;;;6156822;23;20000;-77
2021/06/27 04:37:00;;;;;;;;;;;16.60;99.90;;;;;;6182723;23;20024;-77
2021/06/27 04:39:27;;;;;;;;;;;16.60;99.90;;;;;;6156396;23;20000;-77
2021/06/27 04:41:52;;;;;;;;;;;16.60;99.90;;;;;;6156378;23;19996;-77
2021/06/27 04:44:18;;;;;;;;;;;16.60;99.90;;;;;;6156292;23;19997;-77
2021/06/27 04:46:43;;;;;;;;;;;16.60;99.90;;;;;;6156524;23;19977;-77
2021/06/27 04:49:11;;;;;;;;;;;16.60;99.90;;;;;;6156422;23;20016;-77
2021/06/27 04:51:37;;;;;;;;;;;16.60;99.90;;;;;;6156712;23;19977;-77
2021/06/27 04:54:02;;;;;;;;;;;16.60;99.90;;;;;;6156266;23;20456;-77
2021/06/27 04:56:28;;;;;;;;;;;16.70;99.90;;;;;;6156670;23;20358;-77
2021/06/27 04:58:53;;;;;;;;;;;16.70;99.90;;;;;;6182702;23;19989;-77
2021/06/27 05:01:19;;;;;;;;;;;16.80;99.90;;;;;;6155827;23;20112;-78
2021/06/27 05:03:44;;;;;;;;;;;16.90;99.90;;;;;;6156334;23;19976;-78
2021/06/27 05:06:10;;;;;;;;;;;16.90;99.90;;;;;;6182783;23;19974;-76
2021/06/27 05:08:35;;;;;;;;;;;17.00;99.90;;;;;;6156643;23;19997;-77
2021/06/27 05:11:01;;;;;;;;;;;17.10;99.90;;;;;;6156499;23;19977;-77
2021/06/27 05:13:26;;;;;;;;;;;17.20;99.90;;;;;;6156029;23;20356;-77
2021/06/27 05:15:52;;;;;;;;;;;17.30;99.90;;;;;;6182384;23;20077;-77
2021/06/27 05:18:19;;;;;;;;;;;17.40;99.90;;;;;;6156274;23;20412;-77
2021/06/27 05:20:44;;;;;;;;;;;17.50;99.90;;;;;;6183175;23;19973;-77
2021/06/27 05:23:10;;;;;;;;;;;17.60;99.90;;;;;;6157107;23;19997;-76
2021/06/27 05:25:35;;;;;;;;;;;17.70;99.90;;;;;;6157588;23;20019;-76
2021/06/27 05:28:01;;;;;;;;;;;17.90;99.90;;;;;;6156804;23;19997;-78
2021/06/27 05:30:27;;;;;;;;;;;18.00;99.90;;;;;;6156558;23;20060;-77
2021/06/27 05:32:53;;;;;;;;;;;18.10;99.90;;;;;;6184049;23;20416;-77
2021/06/27 05:35:18;;;;;;;;;;;18.20;99.90;;;;;;6183831;23;20085;-76
2021/06/27 05:37:44;;;;;;;;;;;18.30;99.90;;;;;;6157704;23;20067;-77
2021/06/27 05:40:10;;;;;;;;;;;18.50;99.90;;;;;;6157846;23;20016;-78
2021/06/27 05:42:35;;;;;;;;;;;18.60;99.90;;;;;;6157958;23;20424;-77
2021/06/27 05:45:01;;;;;;;;;;;18.70;99.90;;;;;;6157783;23;19977;-78
2021/06/27 05:47:26;;;;;;;;;;;18.80;99.90;;;;;;6158089;23;19977;-77
2021/06/27 05:49:51;;;;;;;;;;;19.00;99.90;;;;;;6184171;23;20347;-77
2021/06/27 05:52:17;;;;;;;;;;;19.10;99.90;;;;;;6183839;23;19980;-77
2021/06/27 05:54:43;;;;;;;;;;;19.20;99.90;;;;;;6156738;23;20074;-77
2021/06/27 05:57:08;;;;;;;;;;;19.40;99.90;;;;;;6156479;23;20064;-77
2021/06/27 05:59:34;;;;;;;;;;;19.50;99.90;;;;;;6183277;23;19996;-77
2021/06/27 06:01:59;;;;;;;;;;;19.60;99.90;;;;;;6157257;23;20087;-77
2021/06/27 06:04:25;;;;;;;;;;;19.70;99.90;;;;;;6160073;23;20059;-77
2021/06/27 06:06:50;;;;;;;;;;;19.80;99.90;;;;;;6185392;23;19973;-78
2021/06/27 06:09:16;;;;;;;;;;;19.90;99.90;;;;;;6160201;23;20007;-78
2021/06/27 06:11:44;;;;;;;;;;;20.00;99.90;;;;;;6159990;23;20447;-77
2021/06/27 06:14:09;;;;;;;;;;;20.10;99.90;;;;;;6160798;23;20055;-78
2021/06/27 06:16:35;;;;;;;;;;;20.30;99.90;;;;;;6186646;23;20000;-77
2021/06/27 06:19:01;;;;;;;;;;;20.40;99.90;;;;;;6161736;23;19993;-77
2021/06/27 06:21:26;;;;;;;;;;;20.50;99.70;;;;;;6161572;23;19984;-78
2021/06/27 06:23:51;;;;;;;;;;;20.50;99.50;;;;;;6161386;23;19978;-78
2021/06/27 06:26:17;;;;;;;;;;;20.70;99.50;;;;;;6186077;23;19993;-78
2021/06/27 06:28:42;;;;;;;;;;;20.80;98.90;;;;;;6186920;23;20076;-77
2021/06/27 06:31:08;;;;;;;;;;;20.80;97.40;;;;;;6187176;23;19973;-77
2021/06/27 06:33:34;;;;;;;;;;;20.90;97.30;;;;;;6160957;23;19977;-78
2021/06/27 06:36:00;;;;;;;;;;;21.00;97.40;;;;;;6187460;23;20056;-80
2021/06/27 06:38:25;;;;;;;;;;;21.00;97.00;;;;;;6161587;23;20475;-79
2021/06/27 06:40:50;;;;;;;;;;;21.10;95.70;;;;;;6160777;23;19992;-79
2021/06/27 06:43:16;;;;;;;;;;;21.10;94.50;;;;;;6160462;23;19996;-80
2021/06/27 06:45:41;;;;;;;;;;;21.20;94.90;;;;;;6160620;23;20294;-80
2021/06/27 06:48:07;;;;;;;;;;;21.20;94.60;;;;;;6161116;23;20011;-79
2021/06/27 06:50:33;;;;;;;;;;;21.20;95.00;;;;;;6160951;23;19977;-79
2021/06/27 06:52:59;;;;;;;;;;;21.20;94.50;;;;;;6188966;23;19988;-78
2021/06/27 06:55:26;;;;;;;;;;;21.20;94.70;;;;;;6192736;23;19973;-78
2021/06/27 06:57:52;;;;;;;;;;;21.30;94.20;;;;;;6160650;23;19977;-78
2021/06/27 07:00:18;;;;;;;;;;;21.30;94.50;;;;;;6160245;23;19995;-78
2021/06/27 07:02:44;;;;;;;;;;;21.30;94.30;;;;;;6186644;23;19993;-78
2021/06/27 07:05:09;;;;;;;;;;;21.40;94.20;;;;;;6160633;23;20028;-78
2021/06/27 07:07:35;;;;;;;;;;;21.50;93.90;;;;;;6163051;23;20316;-78
2021/06/27 07:10:02;;;;;;;;;;;21.60;93.50;;;;;;6160261;23;20443;-78
2021/06/27 07:12:28;;;;;;;;;;;21.60;93.10;;;;;;6160237;23;19977;-78
2021/06/27 07:14:53;;;;;;;;;;;21.70;92.90;;;;;;6160665;23;19977;-78
2021/06/27 07:17:19;;;;;;;;;;;21.80;92.30;;;;;;6159552;23;19981;-78
2021/06/27 07:19:44;;;;;;;;;;;21.90;91.30;;;;;;6159420;23;19999;-78
2021/06/27 07:22:10;;;;;;;;;;;22.00;91.20;;;;;;6185516;23;19993;-78
2021/06/27 07:24:35;;;;;;;;;;;22.20;89.80;;;;;;6158294;23;20027;-77
2021/06/27 07:27:01;;;;;;;;;;;22.40;87.90;;;;;;6184763;23;20392;-77
2021/06/27 07:29:27;;;;;;;;;;;22.50;85.50;;;;;;6158142;23;19999;-77
2021/06/27 07:31:54;;;;;;;;;;;22.60;85.60;;;;;;6184703;23;19980;-77
2021/06/27 07:34:19;;;;;;;;;;;22.90;84.10;;;;;;6158815;23;19980;-78
2021/06/27 07:36:45;;;;;;;;;;;23.20;83.60;;;;;;6185569;23;20389;-78
2021/06/27 07:39:10;;;;;;;;;;;23.40;82.20;;;;;;6160005;23;19999;-78
2021/06/27 07:41:36;;;;;;;;;;;23.50;81.90;;;;;;6184458;23;20309;-77
2021/06/27 07:44:02;;;;;;;;;;;23.70;80.30;;;;;;6160534;23;20447;-78
2021/06/27 07:46:27;;;;;;;;;;;23.90;78.60;;;;;;6159452;23;20503;-77
2021/06/27 07:48:52;;;;;;;;;;;24.10;79.90;;;;;;6157926;23;20012;-77
2021/06/27 07:51:18;;;;;;;;;;;24.30;77.80;;;;;;6158532;23;20066;-78
2021/06/27 07:53:43;;;;;;;;;;;24.40;77.30;;;;;;6157698;23;19977;-77
2021/06/27 07:56:09;;;;;;;;;;;24.40;77.50;;;;;;6156575;23;19993;-77
2021/06/27 07:58:34;;;;;;;;;;;24.40;77.00;;;;;;6183188;23;19989;-77
2021/06/27 08:01:01;;;;;;;;;;;24.30;77.60;;;;;;6156919;23;19981;-77
2021/06/27 08:03:26;;;;;;;;;;;24.30;78.40;;;;;;6182865;23;19993;-77
2021/06/27 08:05:52;;;;;;;;;;;24.40;77.40;;;;;;6182756;23;19981;-77
2021/06/27 08:08:17;;;;;;;;;;;24.30;76.90;;;;;;6156082;23;19993;-77
2021/06/27 08:10:42;;;;;;;;;;;24.30;77.40;;;;;;6182664;23;20285;-77
2021/06/27 08:13:08;;;;;;;;;;;24.20;78.30;;;;;;6182274;23;19973;-77
2021/06/27 08:15:33;;;;;;;;;;;24.30;78.30;;;;;;6183174;23;20024;-77
2021/06/27 08:17:59;;;;;;;;;;;24.40;77.40;;;;;;6158400;23;19993;-77
2021/06/27 08:20:25;;;;;;;;;;;24.50;78.50;;;;;;6182502;23;19973;-77
2021/06/27 08:22:51;;;;;;;;;;;24.60;79.10;;;;;;6155971;23;20003;-77
2021/06/27 08:25:17;;;;;;;;;;;24.80;75.40;;;;;;6182241;23;19996;-76
2021/06/27 08:27:42;;;;;;;;;;;24.90;76.80;;;;;;6182266;23;19980;-78
2021/06/27 08:30:09;;;;;;;;;;;25.10;75.20;;;;;;6155996;23;20026;-77
2021/06/27 08:32:35;;;;;;;;;;;25.30;74.30;;;;;;6156159;23;19984;-77
2021/06/27 08:35:01;;;;;;;;;;;25.40;73.20;;;;;;6182339;23;20289;-77
2021/06/27 08:37:26;;;;;;;;;;;25.60;72.70;;;;;;6181881;23;19980;-77
2021/06/27 08:39:52;;;;;;;;;;;25.90;71.00;;;;;;6155686;23;20000;-77
2021/06/27 08:42:21;;;;;;;;;;;26.10;70.90;;;;;;6155781;23;19996;-77
2021/06/27 08:44:49;;;;;;;;;;;26.30;70.90;;;;;;6182028;23;19980;-77
2021/06/27 08:47:15;;;;;;;;;;;26.50;69.20;;;;;;6155750;23;20009;-77
2021/06/27 08:49:42;;;;;;;;;;;26.60;70.50;;;;;;6181734;23;20001;-77
2021/06/27 08:52:13;;;;;;;;;;;26.70;69.00;;;;;;6155606;23;19977;-77
2021/06/27 08:54:39;;;;;;;;;;;26.90;67.50;;;;;;6155840;23;19977;-77
2021/06/27 08:57:04;;;;;;;;;;;27.00;67.40;;;;;;6155612;23;20316;-77
2021/06/27 08:59:31;;;;;;;;;;;27.00;66.90;;;;;;6181772;23;19993;-77
2021/06/27 09:01:58;;;;;;;;;;;26.90;68.00;;;;;;6181914;23;19993;-77
2021/06/27 09:04:23;;;;;;;;;;;26.80;68.20;;;;;;6155654;23;19977;-77
2021/06/27 09:06:49;;;;;;;;;;;26.60;68.80;;;;;;6181925;23;20104;-77
2021/06/27 09:09:15;;;;;;;;;;;26.50;70.10;;;;;;6181936;23;19989;-77
2021/06/27 09:11:55;;;;;;;;;;;26.30;69.20;;;;;;6181841;23;19973;-77
2021/06/27 09:14:27;;;;;;;;;;;26.00;70.50;;;;;;6182673;23;19976;-77
2021/06/27 09:17:05;;;;;;;;;;;25.90;72.30;;;;;;6155478;23;20017;-77
2021/06/27 09:19:30;;;;;;;;;;;25.90;72.70;;;;;;6155993;23;20075;-77
2021/06/27 09:22:11;;;;;;;;;;;25.90;71.50;;;;;;6182636;23;20043;-77
2021/06/27 09:24:36;;;;;;;;;;;26.00;71.00;;;;;;6156348;23;19977;-77
2021/06/27 09:27:15;;;;;;;;;;;26.10;70.60;;;;;;6182203;23;20290;-77
2021/06/27 09:29:41;;;;;;;;;;;26.20;69.10;;;;;;6155117;23;20478;-77
2021/06/27 09:32:19;;;;;;;;;;;26.50;68.80;;;;;;6155227;23;20016;-77
2021/06/27 09:34:45;;;;;;;;;;;26.80;68.10;;;;;;6155142;23;19986;-77
2021/06/27 09:37:13;;;;;;;;;;;27.20;66.30;;;;;;6155176;23;20000;-77
2021/06/27 09:39:53;;;;;;;;;;;27.60;64.60;;;;;;6181369;23;19988;-77
2021/06/27 09:42:19;;;;;;;;;;;27.80;65.70;;;;;;6154987;23;20076;-77
2021/06/27 09:44:57;;;;;;;;;;;28.50;61.30;;;;;;6155068;23;20000;-77
2021/06/27 09:47:23;;;;;;;;;;;29.00;59.50;;;;;;6181683;23;19985;-77
2021/06/27 09:49:48;;;;;;;;;;;29.60;58.40;;;;;;6156071;23;20503;-71
2021/06/27 09:52:14;;;;;;;;;;;30.20;56.00;;;;;;6181309;23;19982;-71
2021/06/27 09:54:39;;;;;;;;;;;31.20;54.50;;;;;;6181318;23;19973;-70
2021/06/27 09:57:05;;;;;;;;;;;32.30;52.30;;;;;;6181317;23;20068;-71
2021/06/27 09:59:40;;;;;;;;;;;33.30;49.30;;;;;;6181230;23;20071;-71
2021/06/27 10:02:06;;;;;;;;;;;34.20;47.90;;;;;;6154862;23;19996;-71
2021/06/27 10:04:33;;;;;;;;;;;35.30;45.10;;;;;;6181428;23;19973;-72
2021/06/27 10:06:59;;;;;;;;;;;36.20;43.70;;;;;;6181612;23;19973;-72
2021/06/27 10:09:29;;;;;;;;;;;37.10;40.90;;;;;;6181200;23;19989;-73
2021/06/27 10:11:57;;;;;;;;;;;37.50;39.50;;;;;;6181224;23;19981;-73
2021/06/27 10:14:22;;;;;;;;;;;37.40;39.10;;;;;;6154910;23;20027;-73
2021/06/27 10:16:48;;;;;;;;;;;38.30;37.40;;;;;;6181242;23;19977;-73
2021/06/27 10:19:14;;;;;;;;;;;39.10;36.80;;;;;;6154673;23;20000;-73
2021/06/27 10:21:39;;;;;;;;;;;39.50;35.90;;;;;;6181095;23;20369;-73
2021/06/27 10:24:05;;;;;;;;;;;39.80;35.00;;;;;;6154804;23;19977;-73
2021/06/27 10:26:30;;;;;;;;;;;39.40;34.20;;;;;;6181103;23;20048;-73
2021/06/27 10:28:56;;;;;;;;;;;39.80;33.40;;;;;;6154796;23;19996;-73
2021/06/27 10:31:23;;;;;;;;;;;40.40;32.70;;;;;;6181498;23;19973;-73
2021/06/27 10:33:49;;;;;;;;;;;40.80;30.60;;;;;;6181000;23;19973;-73
2021/06/27 10:36:28;;;;;;;;;;;40.80;30.90;;;;;;6181125;23;20023;-73
2021/06/27 10:38:54;;;;;;;;;;;40.80;30.70;;;;;;6154713;23;20042;-73
2021/06/27 10:41:20;;;;;;;;;;;41.00;30.10;;;;;;6155085;23;20052;-73
2021/06/27 10:44:05;;;;;;;;;;;41.20;29.20;;;;;;6181149;23;20003;-73
2021/06/27 10:46:40;;;;;;;;;;;41.60;29.20;;;;;;6181262;23;20037;-74
2021/06/27 10:49:06;;;;;;;;;;;41.30;30.20;;;;;;6181697;23;20007;-74
2021/06/27 10:51:50;;;;;;;;;;;41.60;30.00;;;;;;6154697;23;19978;-74
2021/06/27 10:54:15;;;;;;;;;;;42.40;28.60;;;;;;6182436;23;19980;-73
2021/06/27 10:57:07;;;;;;;;;;;42.80;27.70;;;;;;6181450;23;19980;-74
2021/06/27 10:59:39;;;;;;;;;;;42.90;28.00;;;;;;6175710;23;19997;-73
2021/06/27 11:02:13;;;;;;;;;;;42.50;28.10;;;;;;6183695;23;20015;-73
2021/06/27 11:04:39;;;;;;;;;;;42.60;28.80;;;;;;6183111;23;19996;-74
2021/06/27 11:07:04;;;;;;;;;;;42.60;28.70;;;;;;6182982;23;20301;-74
2021/06/27 11:09:30;;;;;;;;;;;43.10;29.00;;;;;;6183035;23;19996;-73
2021/06/27 11:11:57;;;;;;;;;;;43.00;27.90;;;;;;6156612;23;19981;-74
2021/06/27 11:14:23;;;;;;;;;;;43.50;28.10;;;;;;6183093;23;19981;-74
2021/06/27 11:17:06;;;;;;;;;;;43.70;26.90;;;;;;6156802;23;20028;-73
2021/06/27 11:19:33;;;;;;;;;;;43.80;27.00;;;;;;6183026;23;20017;-73
2021/06/27 11:22:12;;;;;;;;;;;43.90;26.10;;;;;;6156547;23;20389;-73
2021/06/27 11:24:37;;;;;;;;;;;44.10;25.90;;;;;;6156642;23;19977;-72
2021/06/27 11:27:03;;;;;;;;;;;44.10;26.50;;;;;;6183012;23;20297;-73
2021/06/27 11:29:28;;;;;;;;;;;43.20;26.60;;;;;;6183094;23;19989;-73
2021/06/27 11:31:55;;;;;;;;;;;43.30;26.80;;;;;;6182700;23;19973;-74
2021/06/27 11:34:20;;;;;;;;;;;43.30;26.50;;;;;;6182655;23;20031;-73
2021/06/27 11:36:49;;;;;;;;;;;43.40;26.50;;;;;;6182788;23;20392;-73
2021/06/27 11:39:34;;;;;;;;;;;43.70;27.30;;;;;;6182637;23;20013;-73
2021/06/27 11:41:59;;;;;;;;;;;44.40;24.90;;;;;;6182423;23;19993;-73
2021/06/27 11:44:25;;;;;;;;;;;43.90;24.70;;;;;;6182578;23;20343;-73
2021/06/27 11:46:50;;;;;;;;;;;43.20;24.80;;;;;;6156197;23;19984;-73
2021/06/27 11:49:17;;;;;;;;;;;43.10;24.90;;;;;;6155772;23;20084;-73
2021/06/27 11:51:47;;;;;;;;;;;42.70;25.40;;;;;;6182779;23;19972;-73
2021/06/27 11:54:30;;;;;;;;;;;42.90;25.50;;;;;;6182409;23;20052;-73
2021/06/27 11:56:57;;;;;;;;;;;43.30;25.00;;;;;;6182492;23;20353;-74
2021/06/27 11:59:25;;;;;;;;;;;44.10;25.00;;;;;;6182167;23;20372;-73
2021/06/27 12:02:04;;;;;;;;;;;44.30;24.40;;;;;;6182253;23;20120;-74
2021/06/27 12:04:41;;;;;;;;;;;44.10;25.00;;;;;;6182294;23;20389;-74
2021/06/27 12:07:26;;;;;;;;;;;44.90;24.70;;;;;;6182216;23;20054;-73
2021/06/27 12:09:52;;;;;;;;;;;45.10;23.50;;;;;;6155712;23;20439;-74
2021/06/27 12:12:36;;;;;;;;;;;45.00;24.20;;;;;;6181499;23;19973;-73
2021/06/27 12:15:03;;;;;;;;;;;44.50;25.20;;;;;;6155729;23;20415;-74
2021/06/27 12:17:28;;;;;;;;;;;45.20;24.40;;;;;;6182092;23;19977;-73
2021/06/27 12:19:54;;;;;;;;;;;45.40;24.00;;;;;;6155665;23;19999;-74
2021/06/27 12:22:20;;;;;;;;;;;45.70;23.70;;;;;;6155616;23;20048;-74
2021/06/27 12:24:46;;;;;;;;;;;45.30;22.60;;;;;;6155815;23;19984;-72
2021/06/27 12:27:12;;;;;;;;;;;45.10;23.70;;;;;;6182112;23;20305;-73
2021/06/27 12:29:49;;;;;;;;;;;45.40;23.30;;;;;;6181950;23;20004;-73
2021/06/27 12:32:15;;;;;;;;;;;45.40;23.10;;;;;;6182335;23;19984;-73
2021/06/27 12:34:41;;;;;;;;;;;45.40;22.40;;;;;;6181958;23;20011;-73
2021/06/27 12:37:07;;;;;;;;;;;44.90;22.50;;;;;;6182195;23;19973;-71
2021/06/27 12:39:32;;;;;;;;;;;45.10;23.20;;;;;;6182033;23;19993;-73
2021/06/27 12:42:08;;;;;;;;;;;46.10;23.10;;;;;;6181826;23;20320;-74
2021/06/27 12:44:33;;;;;;;;;;;45.90;22.80;;;;;;6155554;23;20423;-74
2021/06/27 12:46:59;;;;;;;;;;;45.10;23.20;;;;;;6181908;23;19973;-73
2021/06/27 12:49:26;;;;;;;;;;;45.90;22.90;;;;;;6155318;23;20094;-74
2021/06/27 12:52:03;;;;;;;;;;;46.10;21.80;;;;;;6182199;23;19973;-73
2021/06/27 12:54:30;;;;;;;;;;;46.10;22.20;;;;;;6182200;23;20023;-74
2021/06/27 12:57:17;;;;;;;;;;;45.30;22.30;;;;;;6155429;23;19985;-73
2021/06/27 12:59:44;;;;;;;;;;;45.70;22.70;;;;;;6181688;23;20036;-72
2021/06/27 13:02:23;;;;;;;;;;;46.10;22.40;;;;;;6181507;23;20456;-73
2021/06/27 13:04:51;;;;;;;;;;;45.40;23.20;;;;;;6181633;23;20003;-73
2021/06/27 13:07:29;;;;;;;;;;;46.30;23.00;;;;;;6181695;23;19980;-74
2021/06/27 13:10:06;;;;;;;;;;;47.00;21.60;;;;;;6154984;23;19996;-74
2021/06/27 13:12:35;;;;;;;;;;;46.60;22.50;;;;;;6181634;23;20304;-74
2021/06/27 13:15:06;;;;;;;;;;;45.40;21.40;;;;;;6155264;23;19977;-73
2021/06/27 13:17:39;;;;;;;;;;;45.40;22.50;;;;;;6155087;23;19977;-73
2021/06/27 13:20:12;;;;;;;;;;;46.00;21.80;;;;;;6155168;23;19993;-73
2021/06/27 13:22:56;;;;;;;;;;;45.80;21.80;;;;;;6181630;23;20035;-74
2021/06/27 13:25:37;;;;;;;;;;;45.60;22.10;;;;;;6181979;23;19973;-73
2021/06/27 13:28:04;;;;;;;;;;;45.30;22.60;;;;;;6181675;23;20312;-73
2021/06/27 13:30:30;;;;;;;;;;;44.10;23.30;;;;;;6181482;23;19984;-73
2021/06/27 13:33:09;;;;;;;;;;;44.20;24.20;;;;;;6181454;23;19973;-73
2021/06/27 13:35:35;;;;;;;;;;;44.50;24.40;;;;;;6181419;23;19973;-73
2021/06/27 13:38:05;;;;;;;;;;;44.70;23.60;;;;;;6181285;23;19974;-74
2021/06/27 13:40:31;;;;;;;;;;;43.50;24.20;;;;;;6181538;23;20268;-73
2021/06/27 13:42:56;;;;;;;;;;;43.50;24.10;;;;;;6181163;23;20032;-73
2021/06/27 13:45:22;;;;;;;;;;;43.80;24.00;;;;;;6181721;23;19973;-73
2021/06/27 13:47:48;;;;;;;;;;;43.70;24.10;;;;;;6181692;23;19973;-73
2021/06/27 13:50:14;;;;;;;;;;;43.30;25.40;;;;;;6181167;23;20051;-73
2021/06/27 13:52:40;;;;;;;;;;;43.20;24.80;;;;;;6155031;23;19988;-73
2021/06/27 13:55:05;;;;;;;;;;;43.10;25.70;;;;;;6154936;23;19977;-74
2021/06/27 13:57:31;;;;;;;;;;;42.90;25.30;;;;;;6154873;23;19977;-73
2021/06/27 13:59:56;;;;;;;;;;;42.00;26.60;;;;;;6181041;23;20034;-74
2021/06/27 14:02:22;;;;;;;;;;;40.90;27.40;;;;;;6153690;23;20047;-73
2021/06/27 14:04:47;;;;;;;;;;;39.70;28.70;;;;;;6181142;23;19973;-73
2021/06/27 14:07:14;;;;;;;;;;;38.80;31.10;;;;;;6181894;23;19976;-73
2021/06/27 14:09:39;;;;;;;;;;;38.20;31.20;;;;;;6180918;23;20063;-72
2021/06/27 14:12:05;;;;;;;;;;;37.70;31.20;;;;;;6180990;23;19973;-73
2021/06/27 14:14:30;;;;;;;;;;;37.10;32.40;;;;;;6181364;23;19981;-73
2021/06/27 14:16:56;;;;;;;;;;;36.70;32.80;;;;;;6181167;23;19973;-73